Time;durP1;ratioP1;P1;durP2;ratioP2;P2;SDS_P1;SDS_P2;PMS_P1;PMS_P2;Temp;Humidity;BMP_temperature;BMP_pressure;BME280_temperature;BME280_humidity;BME280_pressure;Samples;Min_cycle;Max_cycle;Signal;HPM_P1;HPM_P2
2023/10/22 00:00:45;;;;;;;;;;;;;;;26.88;34.62;100539.19;5067913;28;1909;-41
2023/10/22 00:03:11;;;;;;;;;;;;;;;27.00;34.75;100534.16;5057755;28;1138;-41
2023/10/22 00:05:36;;;;;;;;;;;;;;;27.04;34.51;100526.56;5068540;28;1103;-42
2023/10/22 00:08:02;;;;;;;;;;;;;;;27.01;34.68;100530.44;5057238;28;1063;-42
2023/10/22 00:10:27;;;;;;;;;;;;;;;26.89;34.64;100528.19;5057974;28;836;-41
2023/10/22 00:12:53;;;;;;;;;;;;;;;26.85;34.87;100526.91;5069085;28;1140;-43
2023/10/22 00:15:20;;;;;;;;;;;;;;;26.93;34.85;100530.53;5056508;28;1040;-42
2023/10/22 00:17:46;;;;;;;;;;;;;;;26.85;34.91;100523.38;5057287;28;1303;-42
2023/10/22 00:20:11;;;;;;;;;;;;;;;26.87;34.96;100527.56;5075763;28;1063;-42
2023/10/22 00:22:37;;;;;;;;;;;;;;;26.83;35.18;100522.72;5073400;28;1914;-42
2023/10/22 00:25:02;;;;;;;;;;;;;;;26.96;34.75;100527.47;5060022;28;1044;-43
2023/10/22 00:27:28;;;;;;;;;;;;;;;26.89;34.91;100530.09;5060005;28;1059;-42
2023/10/22 00:29:53;;;;;;;;;;;;;;;26.81;35.14;100536.41;5075487;28;988;-43
2023/10/22 00:32:19;;;;;;;;;;;;;;;26.83;35.19;100533.50;5061349;28;1125;-43
2023/10/22 00:34:44;;;;;;;;;;;;;;;26.93;34.87;100519.72;5068899;28;953;-41
2023/10/22 00:37:10;;;;;;;;;;;;;;;26.93;34.72;100515.19;5047648;28;1151;-43
2023/10/22 00:39:35;;;;;;;;;;;;;;;26.96;34.70;100522.91;5059993;28;1122;-43
2023/10/22 00:42:01;;;;;;;;;;;;;;;26.74;35.22;100509.31;5072761;28;1906;-41
2023/10/22 00:44:27;;;;;;;;;;;;;;;26.83;34.90;100522.72;5041825;28;841;-42
2023/10/22 00:46:53;;;;;;;;;;;;;;;26.87;35.06;100522.19;5046421;28;918;-41
2023/10/22 00:49:18;;;;;;;;;;;;;;;26.86;34.98;100522.38;5041765;28;1102;-40
2023/10/22 00:51:44;;;;;;;;;;;;;;;26.85;34.82;100518.81;5072927;28;1158;-43
2023/10/22 00:54:09;;;;;;;;;;;;;;;26.83;35.24;100523.56;5031925;28;1223;-41
2023/10/22 00:56:35;;;;;;;;;;;;;;;26.89;34.87;100527.38;5079188;28;1126;-42
2023/10/22 00:59:00;;;;;;;;;;;;;;;26.92;34.78;100531.56;5071978;28;937;-39
2023/10/22 01:01:26;;;;;;;;;;;;;;;26.95;34.83;100526.63;5072489;28;1988;-42
2023/10/22 01:03:52;;;;;;;;;;;;;;;26.85;34.99;100534.16;5072700;28;989;-41
2023/10/22 01:06:18;;;;;;;;;;;;;;;26.98;34.90;100538.91;5059383;28;1087;-42
2023/10/22 01:08:46;;;;;;;;;;;;;;;26.86;34.86;100535.88;5025280;28;1288;-42
2023/10/22 01:11:11;;;;;;;;;;;;;;;26.81;35.39;100538.28;5078763;28;925;-42
2023/10/22 01:13:37;;;;;;;;;;;;;;;26.83;34.95;100542.44;5058788;28;1031;-43
2023/10/22 01:16:03;;;;;;;;;;;;;;;26.93;34.93;100550.28;5059476;28;1102;-41
2023/10/22 01:18:29;;;;;;;;;;;;;;;26.91;35.17;100552.31;5079188;28;1220;-42
2023/10/22 01:20:54;;;;;;;;;;;;;;;27.00;34.96;100556.59;5078742;28;1890;-40
2023/10/22 01:23:20;;;;;;;;;;;;;;;26.87;34.87;100553.72;5058787;28;1036;-42
2023/10/22 01:25:45;;;;;;;;;;;;;;;26.93;34.82;100555.66;5072261;28;1071;-41
2023/10/22 01:28:11;;;;;;;;;;;;;;;26.78;35.36;100540.31;5047482;28;1026;-39
2023/10/22 01:30:36;;;;;;;;;;;;;;;26.96;35.06;100558.00;5065849;28;1179;-43
2023/10/22 01:33:02;;;;;;;;;;;;;;;26.90;35.12;100558.75;5063196;28;1160;-42
2023/10/22 01:35:28;;;;;;;;;;;;;;;26.83;35.32;100557.81;5071859;28;1067;-42
2023/10/22 01:37:53;;;;;;;;;;;;;;;26.83;35.23;100558.66;5041255;28;1127;-43
2023/10/22 01:40:19;;;;;;;;;;;;;;;26.86;35.03;100565.56;5072167;28;1210;-42
2023/10/22 01:42:45;;;;;;;;;;;;;;;26.86;35.21;100560.16;5078052;28;2009;-42
2023/10/22 01:45:11;;;;;;;;;;;;;;;26.90;35.20;100561.44;5076755;28;1106;-43
2023/10/22 01:47:36;;;;;;;;;;;;;;;26.89;34.87;100562.47;5046879;28;1056;-43
2023/10/22 01:50:04;;;;;;;;;;;;;;;26.93;35.09;100565.63;5064984;28;1058;-43
2023/10/22 01:52:33;;;;;;;;;;;;;;;26.88;34.90;100567.03;5041079;28;1553;-43
2023/10/22 01:54:58;;;;;;;;;;;;;;;26.86;35.00;100560.16;5058234;28;1099;-41
2023/10/22 01:57:24;;;;;;;;;;;;;;;26.92;34.93;100567.50;5073274;28;1147;-42
2023/10/22 01:59:50;;;;;;;;;;;;;;;26.88;35.27;100563.47;5046977;28;1099;-42
2023/10/22 02:02:16;;;;;;;;;;;;;;;26.93;34.95;100566.47;5078268;28;1905;-42
2023/10/22 02:04:42;;;;;;;;;;;;;;;26.94;35.20;100567.31;5046780;28;1250;-38
2023/10/22 02:07:07;;;;;;;;;;;;;;;26.96;34.94;100563.38;5071345;28;1102;-42
2023/10/22 02:09:33;;;;;;;;;;;;;;;26.97;35.19;100556.97;5050886;28;1258;-42
2023/10/22 02:11:59;;;;;;;;;;;;;;;26.88;35.39;100558.94;5046745;28;1108;-42
2023/10/22 02:14:24;;;;;;;;;;;;;;;26.73;35.27;100556.22;5064845;28;1149;-42
2023/10/22 02:16:50;;;;;;;;;;;;;;;26.93;35.03;100563.75;5071269;28;1159;-42
2023/10/22 02:19:15;;;;;;;;;;;;;;;26.81;35.36;100557.16;5071458;28;1112;-44
2023/10/22 02:21:41;;;;;;;;;;;;;;;26.82;35.57;100561.53;5042885;28;1910;-42
2023/10/22 02:24:09;;;;;;;;;;;;;;;26.93;35.08;100557.53;5051418;28;1082;-43
2023/10/22 02:26:34;;;;;;;;;;;;;;;26.92;34.98;100559.41;5057722;28;1145;-43
2023/10/22 02:29:00;;;;;;;;;;;;;;;26.89;35.21;100557.91;5057526;28;1242;-41
2023/10/22 02:31:25;;;;;;;;;;;;;;;26.90;35.09;100556.03;5052313;28;1147;-42
2023/10/22 02:34:00;;;;;;;;;;;;;;;26.88;35.23;100556.22;5075378;28;1064;-39
2023/10/22 02:36:25;;;;;;;;;;;;;;;26.93;35.08;100555.66;5064461;28;1202;-42
2023/10/22 02:38:51;;;;;;;;;;;;;;;26.92;35.42;100554.00;5064167;28;1112;-40
2023/10/22 02:41:16;;;;;;;;;;;;;;;26.83;35.38;100558.66;5064421;28;1958;-42
2023/10/22 02:43:43;;;;;;;;;;;;;;;26.85;35.34;100555.75;5046338;28;1102;-41
2023/10/22 02:46:08;;;;;;;;;;;;;;;26.82;35.33;100558.84;5068659;28;1050;-42
2023/10/22 02:48:33;;;;;;;;;;;;;;;26.85;35.53;100555.75;5077411;28;976;-42
2023/10/22 02:51:03;;;;;;;;;;;;;;;26.87;35.20;100562.66;5077391;28;1138;-42
2023/10/22 02:53:30;;;;;;;;;;;;;;;26.80;35.25;100559.03;5058936;28;948;-42
2023/10/22 02:56:00;;;;;;;;;;;;;;;26.80;35.24;100564.41;5051371;28;1149;-42
2023/10/22 02:58:25;;;;;;;;;;;;;;;26.95;35.32;100567.13;5069873;28;1155;-42
2023/10/22 03:00:51;;;;;;;;;;;;;;;26.83;35.17;100561.34;5057306;28;1910;-41
2023/10/22 03:03:18;;;;;;;;;;;;;;;26.84;35.37;100560.31;5054159;28;1111;-43
2023/10/22 03:05:43;;;;;;;;;;;;;;;26.79;35.39;100562.75;5050933;28;1059;-39
2023/10/22 03:08:09;;;;;;;;;;;;;;;26.91;35.49;100571.19;5056880;28;1166;-43
2023/10/22 03:10:37;;;;;;;;;;;;;;;26.90;35.27;100570.38;5058652;28;1203;-44
2023/10/22 03:13:04;;;;;;;;;;;;;;;26.98;35.17;100571.28;5035035;28;1063;-42
2023/10/22 03:15:30;;;;;;;;;;;;;;;26.94;35.30;100572.72;5070674;28;1419;-44
2023/10/22 03:17:56;;;;;;;;;;;;;;;27.13;35.12;100579.41;5058119;28;1417;-41
2023/10/22 03:20:25;;;;;;;;;;;;;;;26.89;34.38;100579.47;5055335;28;1289;-43
2023/10/22 03:22:53;;;;;;;;;;;;;;;26.52;34.24;100584.78;5049312;28;1910;-44
2023/10/22 03:25:21;;;;;;;;;;;;;;;26.33;34.49;100587.97;5062849;28;1134;-43
2023/10/22 03:27:47;;;;;;;;;;;;;;;26.31;33.92;100588.09;5043804;28;1419;-43
2023/10/22 03:30:13;;;;;;;;;;;;;;;26.28;33.96;100586.63;5074056;28;1126;-43
2023/10/22 03:32:39;;;;;;;;;;;;;;;26.23;33.98;100583.63;5054335;28;1328;-44
2023/10/22 03:35:06;;;;;;;;;;;;;;;26.24;33.77;100588.00;5066990;28;1329;-43
2023/10/22 03:37:31;;;;;;;;;;;;;;;26.36;34.14;100591.13;5062815;28;1151;-44
2023/10/22 03:39:57;;;;;;;;;;;;;;;26.45;33.82;100589.22;5076291;28;1012;-43
2023/10/22 03:42:22;;;;;;;;;;;;;;;26.34;33.71;100590.47;5062872;28;1910;-44
2023/10/22 03:44:48;;;;;;;;;;;;;;;26.41;33.82;100594.13;5064478;28;1194;-44
2023/10/22 03:47:13;;;;;;;;;;;;;;;25.41;36.91;100578.56;5063782;28;1415;-41
2023/10/22 03:49:39;;;;;;;;;;;;;;;24.68;36.98;100589.34;5067672;28;2657;-42
2023/10/22 03:52:05;;;;;;;;;;;;;;;25.35;34.27;100586.50;5066697;28;1904;-37
2023/10/22 03:54:31;;;;;;;;;;;;;;;25.75;34.80;100595.44;5041540;28;1826;-33
2023/10/22 03:56:56;;;;;;;;;;;;;;;25.70;34.10;100584.34;5074295;28;1864;-28
2023/10/22 03:59:22;;;;;;;;;;;;;;;26.09;33.77;100589.81;5064423;28;2292;-35
2023/10/22 04:01:47;;;;;;;;;;;;;;;25.84;33.90;100590.00;5068654;28;2172;-44
2023/10/22 04:04:13;;;;;;;;;;;;;;;25.19;34.90;100597.16;5072358;28;1908;-46
2023/10/22 04:06:38;;;;;;;;;;;;;;;24.93;35.03;100581.25;5058747;28;1100;-47
2023/10/22 04:09:04;;;;;;;;;;;;;;;25.14;34.62;100596.00;5065551;28;1078;-43
2023/10/22 04:11:29;;;;;;;;;;;;;;;25.33;34.36;100605.53;5058289;28;1171;-36
2023/10/22 04:13:54;;;;;;;;;;;;;;;24.85;34.92;100594.69;5065695;28;1028;-40
2023/10/22 04:16:20;;;;;;;;;;;;;;;24.96;34.99;100598.94;5068887;28;1055;-46
2023/10/22 04:18:46;;;;;;;;;;;;;;;24.98;34.99;100607.66;5043546;28;1071;-47
2023/10/22 04:21:14;;;;;;;;;;;;;;;25.33;34.80;100600.13;5037932;28;1910;-40
2023/10/22 04:23:39;;;;;;;;;;;;;;;24.92;35.35;100591.16;5053770;28;1357;-42
2023/10/22 04:26:10;;;;;;;;;;;;;;;24.96;34.53;100605.13;5048363;28;1446;-46
2023/10/22 04:28:35;;;;;;;;;;;;;;;25.27;34.20;100609.75;5040104;28;1123;-41
2023/10/22 04:31:01;;;;;;;;;;;;;;;24.95;34.61;100611.53;5045491;28;1024;-37
2023/10/22 04:33:26;;;;;;;;;;;;;;;24.83;34.92;100616.41;5047073;28;1904;-40
2023/10/22 04:35:52;;;;;;;;;;;;;;;24.57;35.17;100615.56;5037049;28;1148;-40
2023/10/22 04:38:17;;;;;;;;;;;;;;;24.85;35.07;100610.84;5035328;28;1025;-38
2023/10/22 04:40:43;;;;;;;;;;;;;;;25.25;33.98;100611.78;5035780;28;1005;-38
2023/10/22 04:43:08;;;;;;;;;;;;;;;25.42;33.91;100617.09;5047782;28;1906;-37
2023/10/22 04:45:34;;;;;;;;;;;;;;;25.48;34.04;100620.94;5035451;28;1047;-37
2023/10/22 04:47:59;;;;;;;;;;;;;;;25.57;33.62;100617.22;5034729;28;849;-38
2023/10/22 04:50:25;;;;;;;;;;;;;;;25.65;33.51;100619.91;5048125;28;1008;-39
2023/10/22 04:52:51;;;;;;;;;;;;;;;25.58;34.03;100623.41;5053230;28;1215;-40
2023/10/22 04:55:17;;;;;;;;;;;;;;;25.79;33.64;100629.06;5052256;28;1195;-37
2023/10/22 04:57:42;;;;;;;;;;;;;;;25.73;33.36;100629.78;5042608;28;1172;-37
2023/10/22 05:00:08;;;;;;;;;;;;;;;25.41;34.02;100628.88;5035153;28;1091;-40
2023/10/22 05:02:34;;;;;;;;;;;;;;;25.21;34.38;100637.34;5034539;28;1898;-41
2023/10/22 05:04:59;;;;;;;;;;;;;;;25.26;34.32;100642.22;5041822;28;1045;-38
2023/10/22 05:07:26;;;;;;;;;;;;;;;25.33;34.56;100645.06;5055084;28;1080;-39
2023/10/22 05:09:52;;;;;;;;;;;;;;;25.09;34.48;100631.50;5041938;28;928;-41
2023/10/22 05:12:17;;;;;;;;;;;;;;;25.37;34.28;100644.56;5040909;28;854;-46
2023/10/22 05:14:42;;;;;;;;;;;;;;;25.28;34.57;100649.13;5038743;28;1052;-45
2023/10/22 05:17:08;;;;;;;;;;;;;;;25.33;34.57;100650.44;5053809;28;1008;-45
2023/10/22 05:19:34;;;;;;;;;;;;;;;25.18;34.66;100653.84;5055452;28;1033;-37
2023/10/22 05:22:00;;;;;;;;;;;;;;;25.35;34.62;100664.59;5044718;28;2062;-35
2023/10/22 05:24:26;;;;;;;;;;;;;;;25.36;34.60;100671.66;5044224;28;906;-45
2023/10/22 05:26:51;;;;;;;;;;;;;;;25.51;34.24;100674.44;5038743;28;1071;-46
2023/10/22 05:29:17;;;;;;;;;;;;;;;25.62;33.95;100668.72;5050278;28;1019;-47
2023/10/22 05:31:42;;;;;;;;;;;;;;;25.72;33.80;100679.31;5039412;28;1110;-39
2023/10/22 05:34:08;;;;;;;;;;;;;;;25.74;33.75;100674.56;5051122;28;2066;-37
2023/10/22 05:36:34;;;;;;;;;;;;;;;25.99;33.70;100679.81;5057426;28;1029;-39
2023/10/22 05:39:00;;;;;;;;;;;;;;;26.09;33.48;100682.28;5057779;28;1233;-38
2023/10/22 05:41:26;;;;;;;;;;;;;;;26.06;33.36;100688.03;5046693;28;1979;-39
2023/10/22 05:44:01;;;;;;;;;;;;;;;26.11;33.36;100677.56;5044901;28;1015;-42
2023/10/22 05:46:27;;;;;;;;;;;;;;;26.56;32.94;100689.59;5057434;28;998;-42
2023/10/22 05:48:52;;;;;;;;;;;;;;;26.70;32.66;100693.34;5049459;28;908;-42
2023/10/22 05:51:18;;;;;;;;;;;;;;;26.93;32.65;100693.31;5056518;28;1018;-41
2023/10/22 05:53:44;;;;;;;;;;;;;;;26.83;32.84;100690.88;5044661;28;1488;-40
2023/10/22 05:56:10;;;;;;;;;;;;;;;26.74;33.40;100684.72;5056414;28;969;-43
2023/10/22 05:58:35;;;;;;;;;;;;;;;27.21;32.25;100686.53;5056930;28;1097;-38
2023/10/22 06:01:02;;;;;;;;;;;;;;;27.36;32.19;100690.03;5045302;28;1977;-49
2023/10/22 06:03:28;;;;;;;;;;;;;;;27.22;32.63;100686.34;5056780;28;2003;-39
2023/10/22 06:05:53;;;;;;;;;;;;;;;26.91;33.46;100698.06;5057375;28;1077;-38
2023/10/22 06:08:19;;;;;;;;;;;;;;;27.20;32.56;100695.63;5043662;28;1418;-45
2023/10/22 06:10:44;;;;;;;;;;;;;;;27.00;32.71;100690.72;5049436;28;1015;-42
2023/10/22 06:13:11;;;;;;;;;;;;;;;27.16;32.49;100695.16;5040643;28;877;-40
2023/10/22 06:15:38;;;;;;;;;;;;;;;26.94;31.66;100696.88;5053831;28;978;-41
2023/10/22 06:18:04;;;;;;;;;;;;;;;26.91;31.71;100692.66;5049018;28;1189;-43
2023/10/22 06:20:30;;;;;;;;;;;;;;;26.81;32.75;100695.63;5067479;28;1020;-41
2023/10/22 06:22:56;;;;;;;;;;;;;;;26.76;33.64;100688.06;5068405;28;1906;-42
2023/10/22 06:25:21;;;;;;;;;;;;;;;26.99;33.32;100694.47;5057376;28;1113;-40
2023/10/22 06:27:47;;;;;;;;;;;;;;;26.97;32.90;100694.66;5056623;28;1126;-39
2023/10/22 06:30:12;;;;;;;;;;;;;;;27.41;32.12;100692.19;5057202;28;988;-37
2023/10/22 06:32:38;;;;;;;;;;;;;;;27.85;32.43;100695.91;5072383;28;1824;-46
2023/10/22 06:35:05;;;;;;;;;;;;;;;28.02;31.26;100697.53;5060195;28;1028;-42
2023/10/22 06:37:31;;;;;;;;;;;;;;;28.06;31.12;100690.75;5073799;28;854;-39
2023/10/22 06:39:59;;;;;;;;;;;;;;;27.93;31.45;100694.97;5073978;28;1119;-37
2023/10/22 06:42:29;;;;;;;;;;;;;;;28.09;31.09;100691.19;5067286;28;1987;-42
2023/10/22 06:44:54;;;;;;;;;;;;;;;28.20;31.04;100692.56;5075726;28;1318;-40
2023/10/22 06:47:20;;;;;;;;;;;;;;;27.85;31.23;100692.38;5076660;28;1032;-39
2023/10/22 06:49:45;;;;;;;;;;;;;;;27.54;31.29;100682.59;5059370;28;901;-39
2023/10/22 06:52:11;;;;;;;;;;;;;;;27.80;31.52;100675.88;5056739;28;1060;-42
2023/10/22 06:54:36;;;;;;;;;;;;;;;27.58;31.77;100682.03;5076515;28;1185;-36
2023/10/22 06:57:02;;;;;;;;;;;;;;;27.56;31.83;100680.56;5059190;28;1163;-39
2023/10/22 06:59:28;;;;;;;;;;;;;;;27.63;31.35;100682.31;5071533;28;1408;-40
2023/10/22 07:01:54;;;;;;;;;;;;;;;27.89;31.55;100685.56;5066217;28;1971;-37
2023/10/22 07:04:19;;;;;;;;;;;;;;;28.09;30.88;100687.66;5070274;28;1942;-42
2023/10/22 07:06:45;;;;;;;;;;;;;;;28.05;30.80;100689.06;5062436;28;1186;-39
2023/10/22 07:09:11;;;;;;;;;;;;;;;27.92;31.45;100689.75;5056193;28;1059;-39
2023/10/22 07:11:38;;;;;;;;;;;;;;;28.04;31.14;100690.94;5040334;28;1012;-42
2023/10/22 07:14:04;;;;;;;;;;;;;;;27.91;30.99;100694.31;5068175;28;1028;-40
2023/10/22 07:16:30;;;;;;;;;;;;;;;27.90;30.80;100684.53;5062728;28;1031;-38
2023/10/22 07:18:55;;;;;;;;;;;;;;;28.05;30.62;100689.91;5075206;28;1090;-41
2023/10/22 07:21:21;;;;;;;;;;;;;;;28.19;30.88;100693.59;5056856;28;1906;-44
2023/10/22 07:23:46;;;;;;;;;;;;;;;28.01;31.20;100690.47;5069398;28;1337;-38
2023/10/22 07:26:12;;;;;;;;;;;;;;;28.06;31.22;100683.44;5064850;28;1025;-43
2023/10/22 07:28:41;;;;;;;;;;;;;;;28.29;31.15;100689.72;5065825;28;1195;-39
2023/10/22 07:31:07;;;;;;;;;;;;;;;28.27;31.53;100686.38;5063664;28;1287;-40
2023/10/22 07:33:32;;;;;;;;;;;;;;;28.09;31.46;100693.06;5065383;28;1809;-40
2023/10/22 07:36:00;;;;;;;;;;;;;;;28.41;30.63;100685.50;5043063;28;1145;-42
2023/10/22 07:38:29;;;;;;;;;;;;;;;28.38;30.26;100685.88;5065745;28;1274;-41
2023/10/22 07:40:57;;;;;;;;;;;;;;;28.51;30.26;100692.47;5063880;28;1911;-41
2023/10/22 07:43:24;;;;;;;;;;;;;;;28.28;30.66;100698.88;5059978;28;1356;-37
2023/10/22 07:45:49;;;;;;;;;;;;;;;28.24;30.78;100699.25;5067159;28;1122;-38
2023/10/22 07:48:15;;;;;;;;;;;;;;;27.76;32.10;100697.03;5068474;28;1269;-41
2023/10/22 07:50:41;;;;;;;;;;;;;;;27.54;31.65;100691.56;5071217;28;1139;-42
2023/10/22 07:53:07;;;;;;;;;;;;;;;27.91;31.34;100697.00;5075208;28;1036;-41
2023/10/22 07:55:33;;;;;;;;;;;;;;;27.84;31.22;100699.63;5060315;28;1250;-42
2023/10/22 07:57:59;;;;;;;;;;;;;;;27.77;31.16;100701.44;5063318;28;1199;-41
2023/10/22 08:00:25;;;;;;;;;;;;;;;27.70;31.58;100692.38;5068959;28;1159;-39
2023/10/22 08:02:51;;;;;;;;;;;;;;;27.69;31.53;100693.44;5055714;28;1984;-40
2023/10/22 08:05:17;;;;;;;;;;;;;;;27.76;31.48;100699.72;5055683;28;1068;-40
2023/10/22 08:07:42;;;;;;;;;;;;;;;27.96;31.14;100691.88;5065317;28;1410;-41
2023/10/22 08:10:08;;;;;;;;;;;;;;;27.92;31.09;100693.28;5057521;28;865;-45
2023/10/22 08:12:33;;;;;;;;;;;;;;;27.99;30.80;100693.38;5056827;28;951;-40
2023/10/22 08:14:59;;;;;;;;;;;;;;;28.71;29.70;100700.78;5071010;28;977;-37
2023/10/22 08:17:24;;;;;;;;;;;;;;;28.58;29.57;100694.19;5066697;28;1235;-37
2023/10/22 08:19:50;;;;;;;;;;;;;;;28.99;29.31;100688.28;5048818;28;1116;-36
2023/10/22 08:22:16;;;;;;;;;;;;;;;29.07;29.13;100696.28;5035631;28;1910;-37
2023/10/22 08:24:46;;;;;;;;;;;;;;;29.29;28.98;100691.63;5036973;28;1152;-38
2023/10/22 08:27:11;;;;;;;;;;;;;;;29.42;28.56;100685.44;5055001;28;1414;-39
2023/10/22 08:29:37;;;;;;;;;;;;;;;29.56;28.25;100680.09;5039519;28;1132;-43
2023/10/22 08:32:03;;;;;;;;;;;;;;;29.75;28.15;100686.66;5051519;28;1593;-41
2023/10/22 08:34:28;;;;;;;;;;;;;;;29.70;28.17;100681.84;5045306;28;1757;-41
2023/10/22 08:36:53;;;;;;;;;;;;;;;29.92;28.06;100679.00;5049534;28;1124;-44
2023/10/22 08:39:19;;;;;;;;;;;;;;;29.68;28.40;100675.78;5054300;28;1219;-43
2023/10/22 08:41:47;;;;;;;;;;;;;;;29.71;28.49;100677.28;5054592;28;1906;-43
2023/10/22 08:44:12;;;;;;;;;;;;;;;30.05;27.68;100666.50;5057914;28;1039;-42
2023/10/22 08:46:38;;;;;;;;;;;;;;;30.02;27.62;100677.75;5033999;28;1115;-43
2023/10/22 08:49:06;;;;;;;;;;;;;;;30.05;27.61;100674.63;5044754;28;1068;-44
2023/10/22 08:51:32;;;;;;;;;;;;;;;30.15;27.60;100671.53;5058498;28;1035;-42
2023/10/22 08:53:57;;;;;;;;;;;;;;;30.34;27.37;100675.38;5053268;28;1112;-41
2023/10/22 08:56:23;;;;;;;;;;;;;;;30.43;27.21;100673.25;5044910;28;1298;-40
2023/10/22 08:58:49;;;;;;;;;;;;;;;30.58;26.97;100670.34;5057701;28;1281;-42
2023/10/22 09:01:14;;;;;;;;;;;;;;;30.50;27.33;100662.41;5051796;28;1981;-40
2023/10/22 09:03:41;;;;;;;;;;;;;;;30.36;27.54;100659.72;5048590;28;1814;-40
2023/10/22 09:06:07;;;;;;;;;;;;;;;30.00;27.61;100656.28;5049106;28;1103;-42
2023/10/22 09:08:45;;;;;;;;;;;;;;;29.81;28.09;100649.78;5045108;28;988;-41
2023/10/22 09:11:12;;;;;;;;;;;;;;;30.10;28.09;100653.16;5043977;28;1001;-41
2023/10/22 09:13:38;;;;;;;;;;;;;;;29.86;28.43;100646.44;5049634;28;1306;-40
2023/10/22 09:16:03;;;;;;;;;;;;;;;29.69;28.53;100634.09;5052104;28;1544;-38
2023/10/22 09:18:29;;;;;;;;;;;;;;;29.83;28.58;100634.13;5056256;28;1321;-38
2023/10/22 09:20:59;;;;;;;;;;;;;;;29.77;28.28;100626.81;5063808;28;2292;-40
2023/10/22 09:23:24;;;;;;;;;;;;;;;29.80;28.43;100619.09;5040286;28;1465;-39
2023/10/22 09:25:55;;;;;;;;;;;;;;;29.63;28.33;100606.97;5075650;28;1327;-39
2023/10/22 09:28:21;;;;;;;;;;;;;;;29.44;28.89;100601.25;5052675;28;1301;-37
2023/10/22 09:30:47;;;;;;;;;;;;;;;29.45;29.04;100597.47;5075368;28;1392;-41
2023/10/22 09:33:15;;;;;;;;;;;;;;;29.60;28.72;100599.22;5066488;28;2069;-41
2023/10/22 09:35:40;;;;;;;;;;;;;;;29.74;28.32;100600.94;5058332;28;1230;-40
2023/10/22 09:38:06;;;;;;;;;;;;;;;29.99;28.09;100586.81;5064821;28;1036;-41
2023/10/22 09:40:34;;;;;;;;;;;;;;;29.82;28.13;100589.06;5058132;28;1309;-42
2023/10/22 09:43:01;;;;;;;;;;;;;;;29.79;28.31;100587.63;5057684;28;1933;-41
2023/10/22 09:45:27;;;;;;;;;;;;;;;29.69;28.21;100593.44;5059689;28;1262;-38
2023/10/22 09:47:54;;;;;;;;;;;;;;;29.92;28.00;100583.25;5040338;28;1128;-41
2023/10/22 09:50:19;;;;;;;;;;;;;;;29.92;27.75;100589.50;5072157;28;1088;-41
2023/10/22 09:52:45;;;;;;;;;;;;;;;30.04;27.27;100578.91;5055217;28;1047;-40
2023/10/22 09:55:12;;;;;;;;;;;;;;;30.12;27.41;100587.84;5056231;28;1269;-38
2023/10/22 09:57:39;;;;;;;;;;;;;;;27.69;29.15;100588.03;5057864;28;1317;-43
2023/10/22 10:00:10;;;;;;;;;;;;;;;21.60;39.71;100573.34;5039246;28;1293;-37
2023/10/22 10:02:35;;;;;;;;;;;;;;;20.11;43.75;100572.84;5066883;28;1906;-35
2023/10/22 10:05:02;;;;;;;;;;;;;;;20.37;47.23;100574.13;5065237;28;1529;-39
2023/10/22 10:07:27;;;;;;;;;;;;;;;21.14;44.99;100574.09;5073613;28;1342;-36
2023/10/22 10:09:54;;;;;;;;;;;;;;;21.36;44.25;100582.75;5069144;28;1044;-39
2023/10/22 10:12:20;;;;;;;;;;;;;;;21.23;44.49;100574.22;5064817;28;1213;-37
2023/10/22 10:14:46;;;;;;;;;;;;;;;21.04;45.04;100543.88;5039543;28;1028;-37
2023/10/22 10:17:12;;;;;;;;;;;;;;;20.98;45.17;100552.50;5057433;28;1055;-37
2023/10/22 10:19:38;;;;;;;;;;;;;;;20.80;45.91;100551.38;5057288;28;1206;-39
2023/10/22 10:22:03;;;;;;;;;;;;;;;20.76;46.35;100551.81;5068811;28;1930;-36
2023/10/22 10:24:29;;;;;;;;;;;;;;;20.54;47.08;100541.31;5072599;28;1078;-40
2023/10/22 10:26:56;;;;;;;;;;;;;;;20.42;47.33;100523.75;5069402;28;1115;-36
2023/10/22 10:29:25;;;;;;;;;;;;;;;20.26;47.94;100535.88;5063842;28;1091;-39
2023/10/22 10:31:51;;;;;;;;;;;;;;;20.19;48.30;100538.28;5059584;28;1075;-37
2023/10/22 10:34:40;;;;;;;;;;;;;;;20.14;48.44;100540.53;5063334;28;1821;-38
2023/10/22 10:37:14;;;;;;;;;;;;;;;20.23;48.45;100528.16;5051116;28;1662;-47
2023/10/22 10:39:46;;;;;;;;;;;;;;;20.38;48.01;100530.38;5057093;28;1087;-37
2023/10/22 10:42:12;;;;;;;;;;;;;;;20.60;47.54;100544.41;5056648;28;1907;-37
2023/10/22 10:45:02;;;;;;;;;;;;;;;24.02;39.54;100533.75;5064834;28;1512;-37
2023/10/22 10:47:34;;;;;;;;;;;;;;;22.19;42.63;100518.50;5070583;28;1130;-36
2023/10/22 10:50:11;;;;;;;;;;;;;;;19.91;49.33;100523.91;5074286;28;1087;-38
2023/10/22 10:52:37;;;;;;;;;;;;;;;19.91;49.95;100521.25;5070246;28;1155;-38
2023/10/22 10:55:22;;;;;;;;;;;;;;;20.08;49.53;100514.38;5059665;28;1289;-40
2023/10/22 10:57:51;;;;;;;;;;;;;;;20.20;49.48;100507.09;5057332;28;1587;-41
2023/10/22 11:00:27;;;;;;;;;;;;;;;20.34;49.01;100497.75;5066373;28;1329;-39
2023/10/22 11:02:52;;;;;;;;;;;;;;;20.41;48.81;100496.22;5057935;28;2022;-41
2023/10/22 11:05:30;;;;;;;;;;;;;;;22.66;43.35;100508.47;5055574;28;1282;-43
2023/10/22 11:07:55;;;;;;;;;;;;;;;23.53;39.67;100519.22;5056520;28;1309;-38
2023/10/22 11:10:21;;;;;;;;;;;;;;;19.99;49.00;100509.84;5038895;28;1263;-38
2023/10/22 11:12:46;;;;;;;;;;;;;;;19.48;51.91;100520.63;5056700;28;1317;-42
2023/10/22 11:15:12;;;;;;;;;;;;;;;19.73;50.98;100515.75;5069369;28;984;-40
2023/10/22 11:17:38;;;;;;;;;;;;;;;19.64;51.31;100528.94;5071838;28;1344;-41
2023/10/22 11:20:06;;;;;;;;;;;;;;;19.57;51.40;100530.47;5050944;28;1545;-36
2023/10/22 11:22:32;;;;;;;;;;;;;;;19.55;51.59;100533.28;5038452;28;1973;-39
2023/10/22 11:24:58;;;;;;;;;;;;;;;20.53;49.61;100531.63;5028828;28;1133;-45
2023/10/22 11:27:24;;;;;;;;;;;;;;;23.67;41.02;100540.06;5038759;28;1290;-41
2023/10/22 11:29:49;;;;;;;;;;;;;;;20.00;49.50;100520.38;5035826;28;1298;-39
2023/10/22 11:32:16;;;;;;;;;;;;;;;18.94;52.71;100527.88;5036070;28;982;-38
2023/10/22 11:34:51;;;;;;;;;;;;;;;18.81;55.74;100508.56;5053094;28;2207;-37
2023/10/22 11:37:29;;;;;;;;;;;;;;;22.78;43.72;100517.09;5037779;28;1012;-41
2023/10/22 11:39:55;;;;;;;;;;;;;;;20.29;49.27;100503.53;5048698;28;934;-39
2023/10/22 11:42:20;;;;;;;;;;;;;;;19.14;52.87;100522.63;5035505;28;1930;-44
2023/10/22 11:44:46;;;;;;;;;;;;;;;21.67;46.72;100525.38;5036089;28;1167;-42
2023/10/22 11:47:27;;;;;;;;;;;;;;;21.53;44.70;100516.03;5048634;28;1095;-40
2023/10/22 11:49:54;;;;;;;;;;;;;;;19.31;52.15;100528.31;5048463;28;1000;-37
2023/10/22 11:52:34;;;;;;;;;;;;;;;21.41;47.07;100520.75;5045028;28;1115;-41
2023/10/22 11:55:07;;;;;;;;;;;;;;;21.57;44.51;100519.25;5042708;28;1136;-42
2023/10/22 11:57:33;;;;;;;;;;;;;;;19.38;51.42;100512.59;5055858;28;1072;-40
2023/10/22 11:59:58;;;;;;;;;;;;;;;22.00;45.33;100519.53;5022560;28;1263;-39
2023/10/22 12:02:24;;;;;;;;;;;;;;;21.47;45.04;100530.84;5035617;28;1981;-40
2023/10/22 12:04:49;;;;;;;;;;;;;;;19.69;50.92;100523.19;5048118;28;2250;-40
2023/10/22 12:07:15;;;;;;;;;;;;;;;19.31;52.41;100533.63;5035630;28;1148;-40
2023/10/22 12:09:41;;;;;;;;;;;;;;;22.19;45.05;100523.84;5037034;28;1127;-41
2023/10/22 12:12:07;;;;;;;;;;;;;;;24.32;39.55;100524.19;5054791;28;1004;-42
2023/10/22 12:14:32;;;;;;;;;;;;;;;25.26;37.09;100531.84;5044060;28;1174;-40
2023/10/22 12:16:58;;;;;;;;;;;;;;;25.76;36.40;100526.19;5043610;28;1071;-41
2023/10/22 12:19:23;;;;;;;;;;;;;;;25.92;36.16;100525.25;5062814;28;1231;-39
2023/10/22 12:21:49;;;;;;;;;;;;;;;26.04;35.69;100531.06;5070999;28;1899;-40
2023/10/22 12:24:14;;;;;;;;;;;;;;;26.22;35.32;100529.88;5059467;28;1040;-39
2023/10/22 12:26:40;;;;;;;;;;;;;;;26.25;35.21;100521.44;5066152;28;1075;-39
2023/10/22 12:29:05;;;;;;;;;;;;;;;26.37;34.94;100530.81;5066796;28;1298;-40
2023/10/22 12:31:31;;;;;;;;;;;;;;;26.59;34.79;100525.50;5065256;28;941;-43
2023/10/22 12:33:57;;;;;;;;;;;;;;;26.65;34.67;100529.31;5078204;28;2184;-43
2023/10/22 12:36:22;;;;;;;;;;;;;;;26.51;34.71;100526.44;5075613;28;1048;-42
2023/10/22 12:38:48;;;;;;;;;;;;;;;26.64;34.53;100519.56;5063320;28;1107;-40
2023/10/22 12:41:13;;;;;;;;;;;;;;;26.45;35.22;100521.78;5076666;28;1901;-38
2023/10/22 12:43:39;;;;;;;;;;;;;;;26.94;34.18;100529.53;5079233;28;1031;-40